Mount Perry, Ohio
Current Conditions -  °F | °C
As of 12:54 PM on Monday 24 Nov 2014 (Local Time) from KVTA Reporting Station
Overcast Overcast  
Wind Chill: 59°   Ceiling: 3900
Heat Index: 59°   Visibility: 10mi
Dew Point: 49°   Wind: 28mph
Humidity: 69%   Direction: 250°WSW
Pressure: 29.42"   Gusts: 33mph
Location:  39.88°N, 82.22°W
Report Text: KVTA 241754Z AUTO 25024G29KT 10SM BKN039 OVC049 15/09 A2942 RMK AO2 PK WND 23039/1714 RAB25E36 SLP961 P0000 60000 T01500094 10189 20150 53027
Loading
Personal Weather Stations






























Interactive Weather Map New forecast layout! Learn more

10-Day Weather Forecast

Advertisements
Track Severe Weather on mobile